Time;durP1;ratioP1;P1;durP2;ratioP2;P2;SDS_P1;SDS_P2;PMS_P1;PMS_P2;Temp;Humidity;BMP_temperature;BMP_pressure;BME280_temperature;BME280_humidity;BME280_pressure;Samples;Min_cycle;Max_cycle;Signal;HPM_P1;HPM_P2
2023/09/24 00:01:02;;;;;;;8.73;2.72;;;;;;;14.86;62.19;100621.38;5053377;28;20078;-80
2023/09/24 00:03:28;;;;;;;6.30;2.27;;;;;;;14.86;61.98;100614.31;5050174;28;20547;-80
2023/09/24 00:05:53;;;;;;;7.60;2.50;;;;;;;14.85;62.15;100615.22;5050182;28;20017;-80
2023/09/24 00:08:19;;;;;;;8.03;2.20;;;;;;;14.83;62.17;100614.38;5062839;28;20020;-80
2023/09/24 00:10:47;;;;;;;7.13;2.50;;;;;;;14.78;62.13;100621.50;5090354;28;20277;-79
2023/09/24 00:13:13;;;;;;;7.70;2.47;;;;;;;14.75;62.10;100621.56;5090125;28;20024;-80
2023/09/24 00:15:41;;;;;;;6.60;2.40;;;;;;;14.71;62.40;100622.50;5090199;28;20488;-81
2023/09/24 00:18:06;;;;;;;8.75;2.70;;;;;;;14.67;62.74;100620.78;5089945;28;20019;-81
2023/09/24 00:20:32;;;;;;;9.20;2.50;;;;;;;14.64;62.20;100625.22;5090034;28;20106;-80
2023/09/24 00:22:58;;;;;;;7.57;2.20;;;;;;;14.62;62.55;100624.38;5068248;28;20017;-80
2023/09/24 00:25:24;;;;;;;7.50;2.40;;;;;;;14.61;62.59;100625.28;5049845;28;20377;-81
2023/09/24 00:27:49;;;;;;;7.85;2.08;;;;;;;14.58;62.43;100625.28;5049949;28;20087;-80
2023/09/24 00:30:15;;;;;;;9.00;2.40;;;;;;;14.55;62.47;100614.75;5049626;28;20039;-80
2023/09/24 00:32:40;;;;;;;7.07;2.37;;;;;;;14.53;62.52;100621.84;5049294;28;20073;-80
2023/09/24 00:35:06;;;;;;;7.53;2.20;;;;;;;14.49;62.54;100618.38;5049551;28;20036;-80
2023/09/24 00:37:34;;;;;;;7.70;2.22;;;;;;;14.47;62.62;100616.63;5053182;28;20013;-80
2023/09/24 00:40:00;;;;;;;8.23;2.30;;;;;;;14.44;62.54;100617.56;5069618;28;20036;-80
2023/09/24 00:42:27;;;;;;;7.43;2.37;;;;;;;14.41;62.67;100628.19;5050048;28;20513;-80
2023/09/24 00:44:52;;;;;;;8.52;2.20;;;;;;;14.35;62.74;100626.53;5049454;28;20052;-80
2023/09/24 00:47:18;;;;;;;8.07;2.40;;;;;;;14.27;62.90;100620.44;5051204;28;20052;-80
2023/09/24 00:49:44;;;;;;;7.53;2.20;;;;;;;14.20;62.96;100613.50;5069457;28;20097;-80
2023/09/24 00:52:10;;;;;;;12.17;2.30;;;;;;;14.19;63.11;100615.25;5069366;28;20025;-80
2023/09/24 00:54:37;;;;;;;9.70;2.72;;;;;;;14.18;62.91;100616.13;5069540;28;20048;-79
2023/09/24 00:57:05;;;;;;;8.52;2.60;;;;;;;14.17;63.11;100618.81;5069600;28;20420;-80
2023/09/24 00:59:31;;;;;;;7.65;2.50;;;;;;;14.15;63.35;100620.63;5064673;28;20029;-80
2023/09/24 01:01:57;;;;;;;14.80;2.87;;;;;;;14.12;63.19;100610.06;5049472;28;20024;-80
2023/09/24 01:04:22;;;;;;;7.28;2.38;;;;;;;14.10;63.22;100620.69;5049653;28;20021;-81
2023/09/24 01:06:48;;;;;;;7.50;2.40;;;;;;;14.06;63.30;100616.31;5054379;28;20033;-80
2023/09/24 01:09:20;;;;;;;8.00;2.22;;;;;;;14.03;63.21;100614.56;5089433;28;20024;-80
2023/09/24 01:11:45;;;;;;;7.78;2.42;;;;;;;14.01;63.17;100616.38;5092086;28;20055;-80
2023/09/24 01:14:11;;;;;;;8.20;2.50;;;;;;;14.00;63.45;100616.41;5093978;28;20471;-80
2023/09/24 01:16:38;;;;;;;10.25;2.58;;;;;;;13.99;63.17;100614.66;5093795;28;20031;-80
2023/09/24 01:19:05;;;;;;;8.18;2.47;;;;;;;13.98;63.29;100613.75;5074221;28;20040;-80
2023/09/24 01:21:30;;;;;;;7.80;2.10;;;;;;;13.95;63.47;100611.16;5053188;28;20025;-80
2023/09/24 01:23:58;;;;;;;9.68;2.67;;;;;;;13.93;63.37;100612.94;5053282;28;20040;-80
2023/09/24 01:26:25;;;;;;;7.15;2.28;;;;;;;13.91;63.62;100612.09;5053009;28;20403;-80
2023/09/24 01:28:52;;;;;;;7.47;2.27;;;;;;;13.90;63.54;100620.94;5053051;28;20025;-79
2023/09/24 01:31:20;;;;;;;7.97;2.15;;;;;;;13.88;63.66;100612.13;5052748;28;20128;-80
2023/09/24 01:33:49;;;;;;;8.32;2.35;;;;;;;13.84;63.63;100607.75;5056818;28;20033;-80
2023/09/24 01:36:15;;;;;;;8.43;2.30;;;;;;;13.81;63.66;100611.34;5072998;28;20036;-80
2023/09/24 01:38:40;;;;;;;8.40;2.13;;;;;;;13.81;63.49;100603.38;5072840;28;20025;-80
2023/09/24 01:41:09;;;;;;;6.15;2.10;;;;;;;13.77;63.73;100605.19;5054862;28;20029;-80
2023/09/24 01:43:35;;;;;;;8.33;3.07;;;;;;;13.74;63.80;100614.91;5061843;28;20045;-79
2023/09/24 01:46:05;;;;;;;6.88;2.15;;;;;;;13.71;63.95;100602.63;5052979;28;20025;-80
2023/09/24 01:48:31;;;;;;;7.27;2.10;;;;;;;13.70;64.00;100600.88;5064529;28;20029;-80
2023/09/24 01:50:56;;;;;;;7.78;2.15;;;;;;;13.71;63.82;100605.25;5072628;28;20088;-80
2023/09/24 01:53:22;;;;;;;6.60;1.93;;;;;;;13.69;63.98;100599.13;5072503;28;20119;-81
2023/09/24 01:55:47;;;;;;;7.43;1.90;;;;;;;13.67;64.04;100603.56;5072622;28;20472;-80
2023/09/24 01:58:13;;;;;;;5.73;1.80;;;;;;;13.66;64.02;100609.75;5072657;28;20161;-80
2023/09/24 02:00:39;;;;;;;7.43;1.83;;;;;;;13.61;64.01;100607.13;5058571;28;20067;-80
2023/09/24 02:03:09;;;;;;;7.87;2.10;;;;;;;13.59;64.01;100605.38;5052510;28;20056;-80
2023/09/24 02:05:36;;;;;;;7.70;2.00;;;;;;;13.58;64.26;100603.63;5052465;28;20381;-80
2023/09/24 02:08:08;;;;;;;5.95;1.90;;;;;;;13.57;64.21;100601.88;5078077;28;20031;-80
2023/09/24 02:10:33;;;;;;;9.23;1.98;;;;;;;13.54;64.31;100601.94;5092495;28;20043;-80
2023/09/24 02:13:00;;;;;;;6.73;2.07;;;;;;;13.52;64.09;100594.03;5092556;28;20480;-80
2023/09/24 02:15:26;;;;;;;6.78;1.75;;;;;;;13.49;64.05;100599.31;5071409;28;20518;-81
2023/09/24 02:17:52;;;;;;;5.47;1.92;;;;;;;13.43;64.04;100602.94;5052307;28;20108;-80
2023/09/24 02:20:27;;;;;;;5.80;1.97;;;;;;;13.41;64.36;100590.56;5052283;28;20143;-80
2023/09/24 02:22:56;;;;;;;6.30;1.60;;;;;;;13.38;64.25;100594.09;5050870;28;20033;-80
2023/09/24 02:25:23;;;;;;;9.02;2.28;;;;;;;13.33;64.56;100595.94;5052015;28;20033;-80
2023/09/24 02:27:50;;;;;;;6.67;2.10;;;;;;;13.28;64.67;100596.00;5051959;28;20473;-80
2023/09/24 02:30:16;;;;;;;7.53;2.05;;;;;;;13.25;64.72;100593.34;5057828;28;20025;-80
2023/09/24 02:32:43;;;;;;;7.43;1.80;;;;;;;13.25;64.65;100600.44;5071578;28;20508;-80
2023/09/24 02:35:11;;;;;;;6.03;1.80;;;;;;;13.24;64.75;100598.69;5071881;28;20473;-80
2023/09/24 02:37:40;;;;;;;7.57;1.92;;;;;;;13.22;64.58;100593.38;5071646;28;20060;-80
2023/09/24 02:40:08;;;;;;;7.60;2.07;;;;;;;13.19;64.84;100591.66;5072160;28;20094;-80
2023/09/24 02:42:34;;;;;;;7.35;1.75;;;;;;;13.18;64.71;100597.84;5069420;28;20029;-80
2023/09/24 02:44:59;;;;;;;5.50;1.88;;;;;;;13.15;64.88;100600.53;5051858;28;20504;-80
2023/09/24 02:47:25;;;;;;;6.50;1.60;;;;;;;13.13;64.62;100594.34;5054431;28;20032;-80
2023/09/24 02:49:51;;;;;;;6.90;2.20;;;;;;;13.11;64.62;100606.72;5071646;28;20028;-80
2023/09/24 02:52:16;;;;;;;5.90;1.80;;;;;;;13.07;64.77;100603.25;5071557;28;20202;-81
2023/09/24 02:54:41;;;;;;;5.17;1.80;;;;;;;13.02;64.95;100593.59;5071815;28;20029;-80
2023/09/24 02:57:08;;;;;;;7.30;2.10;;;;;;;12.99;64.95;100594.47;5071761;28;20044;-79
2023/09/24 02:59:34;;;;;;;5.72;2.03;;;;;;;12.96;65.22;100594.50;5066518;28;20511;-80
2023/09/24 03:02:00;;;;;;;6.88;2.03;;;;;;;12.90;65.47;100598.09;5051495;28;20489;-80
2023/09/24 03:04:26;;;;;;;7.73;1.80;;;;;;;12.83;65.87;100590.22;5051419;28;20021;-80
2023/09/24 03:06:52;;;;;;;5.47;2.03;;;;;;;12.80;65.51;100598.19;5057401;28;20164;-80
2023/09/24 03:09:18;;;;;;;6.03;1.93;;;;;;;12.77;65.50;100585.88;5091701;28;20036;-80
2023/09/24 03:11:43;;;;;;;7.00;1.95;;;;;;;12.75;65.81;100595.56;5069142;28;20037;-80
2023/09/24 03:14:09;;;;;;;7.53;1.70;;;;;;;12.73;65.84;100592.94;5051146;28;20025;-80
2023/09/24 03:16:34;;;;;;;6.68;1.88;;;;;;;12.72;65.71;100592.97;5051170;28;20048;-80
2023/09/24 03:19:01;;;;;;;8.53;1.73;;;;;;;12.72;65.78;100591.19;5050906;28;20025;-80
2023/09/24 03:21:26;;;;;;;7.35;1.80;;;;;;;12.73;65.97;100589.44;5051016;28;20028;-80
2023/09/24 03:23:52;;;;;;;8.67;2.00;;;;;;;12.70;65.70;100587.66;5051198;28;20025;-80
2023/09/24 03:26:19;;;;;;;5.33;1.67;;;;;;;12.71;65.57;100584.13;5054867;28;20023;-80
2023/09/24 03:28:44;;;;;;;6.30;1.60;;;;;;;12.70;65.49;100594.75;5070883;28;20118;-80
2023/09/24 03:31:16;;;;;;;5.33;1.40;;;;;;;12.67;65.37;100590.34;5059871;28;20071;-79
2023/09/24 03:33:42;;;;;;;7.50;1.70;;;;;;;12.62;65.70;100592.16;5090501;28;20468;-80
2023/09/24 03:36:08;;;;;;;5.63;1.67;;;;;;;12.59;65.70;100593.03;5091024;28;20024;-80
2023/09/24 03:38:34;;;;;;;7.78;1.70;;;;;;;12.57;65.55;100594.81;5090818;28;20185;-80
2023/09/24 03:41:01;;;;;;;7.33;1.63;;;;;;;12.56;65.81;100595.69;5091320;28;20046;-81
2023/09/24 03:43:27;;;;;;;5.75;1.77;;;;;;;12.55;65.69;100591.31;5080782;28;20094;-80
2023/09/24 03:45:52;;;;;;;6.35;1.60;;;;;;;12.52;65.72;100587.78;5071029;28;20032;-79
2023/09/24 03:48:18;;;;;;;6.50;1.73;;;;;;;12.49;65.61;100583.44;5080762;28;20024;-80
2023/09/24 03:50:44;;;;;;;5.87;1.90;;;;;;;12.48;65.55;100586.97;5090818;28;20085;-80
2023/09/24 03:53:09;;;;;;;5.55;1.60;;;;;;;12.47;65.57;100587.84;5090498;28;20455;-80
2023/09/24 03:55:35;;;;;;;5.47;1.77;;;;;;;12.45;65.55;100594.91;5090732;28;20032;-80
2023/09/24 03:58:01;;;;;;;10.52;1.60;;;;;;;12.43;65.86;100579.06;5090727;28;20494;-80
2023/09/24 04:00:27;;;;;;;7.73;1.77;;;;;;;12.40;65.80;100578.19;5078118;28;20028;-80
2023/09/24 04:02:52;;;;;;;6.25;1.65;;;;;;;12.38;65.55;100583.50;5070084;28;20033;-80
2023/09/24 04:05:21;;;;;;;6.00;1.60;;;;;;;12.35;65.70;100586.16;5070235;28;20025;-80
2023/09/24 04:07:52;;;;;;;5.88;1.73;;;;;;;12.30;65.71;100578.25;5072945;28;20044;-80
2023/09/24 04:10:20;;;;;;;6.85;2.15;;;;;;;12.26;65.99;100595.00;5069946;28;20033;-80
2023/09/24 04:12:46;;;;;;;7.57;2.00;;;;;;;12.22;65.95;100593.28;5070070;28;20024;-80
2023/09/24 04:15:13;;;;;;;6.13;2.10;;;;;;;12.17;66.36;100598.59;5069875;28;20089;-79
2023/09/24 04:17:39;;;;;;;7.73;1.90;;;;;;;12.14;66.29;100597.72;5069946;28;20408;-80
2023/09/24 04:20:14;;;;;;;7.38;2.30;;;;;;;12.13;66.45;100601.22;5070239;28;20286;-80
2023/09/24 04:22:40;;;;;;;7.05;1.60;;;;;;;12.10;66.83;100601.25;5075027;28;20035;-80
2023/09/24 04:25:05;;;;;;;7.53;1.90;;;;;;;12.07;66.87;100607.44;5090113;28;20032;-80
2023/09/24 04:27:31;;;;;;;6.68;1.92;;;;;;;12.05;66.82;100596.88;5069117;28;20472;-80
2023/09/24 04:29:57;;;;;;;6.40;2.37;;;;;;;12.04;66.73;100603.03;5069619;28;20063;-80
2023/09/24 04:32:22;;;;;;;7.50;2.30;;;;;;;12.01;66.78;100597.78;5054063;28;20127;-81
2023/09/24 04:34:49;;;;;;;8.03;2.30;;;;;;;12.02;66.96;100603.94;5049826;28;20526;-80
2023/09/24 04:37:16;;;;;;;7.18;2.20;;;;;;;12.01;67.13;100602.16;5049667;28;20021;-80
2023/09/24 04:39:44;;;;;;;7.10;2.00;;;;;;;11.97;67.16;100600.41;5049646;28;20511;-80
2023/09/24 04:42:11;;;;;;;11.13;2.20;;;;;;;11.91;67.72;100596.03;5049840;28;20392;-80
2023/09/24 04:44:38;;;;;;;8.02;2.20;;;;;;;11.86;67.64;100597.81;5068735;28;20048;-80
2023/09/24 04:47:04;;;;;;;8.77;2.35;;;;;;;11.83;67.79;100597.81;5069083;28;20106;-80
2023/09/24 04:49:30;;;;;;;6.43;1.80;;;;;;;11.80;68.02;100600.47;5049573;28;20101;-80
2023/09/24 04:51:56;;;;;;;7.07;2.00;;;;;;;11.76;68.28;100596.97;5031426;28;20468;-80
2023/09/24 04:54:22;;;;;;;6.73;2.00;;;;;;;11.76;67.98;100600.50;5049757;28;20120;-80
2023/09/24 04:56:48;;;;;;;12.95;2.00;;;;;;;11.82;67.81;100598.72;5049550;28;20025;-79
2023/09/24 04:59:14;;;;;;;5.60;1.60;;;;;;;11.87;67.53;100604.84;5051699;28;20124;-80
2023/09/24 05:01:39;;;;;;;6.90;1.60;;;;;;;11.89;67.81;100596.03;5069438;28;20107;-80
2023/09/24 05:04:05;;;;;;;6.07;1.77;;;;;;;11.88;67.79;100599.56;5062814;28;20275;-80
2023/09/24 05:06:32;;;;;;;4.63;1.47;;;;;;;11.89;67.78;100600.44;5049842;28;20102;-80
2023/09/24 05:08:57;;;;;;;5.80;1.90;;;;;;;11.89;67.42;100597.78;5089331;28;20019;-80
2023/09/24 05:11:23;;;;;;;6.10;1.73;;;;;;;11.88;67.43;100601.31;5089565;28;20028;-80
2023/09/24 05:13:48;;;;;;;5.33;1.73;;;;;;;11.86;67.84;100603.97;5089588;28;20484;-80
2023/09/24 05:16:15;;;;;;;6.90;1.53;;;;;;;11.86;67.62;100598.69;5089611;28;20028;-80
2023/09/24 05:18:41;;;;;;;6.65;1.92;;;;;;;11.86;67.34;100598.69;5082870;28;20021;-80
2023/09/24 05:21:22;;;;;;;7.65;1.90;;;;;;;11.84;68.23;100604.84;5049387;28;20039;-80
2023/09/24 05:23:47;;;;;;;6.93;1.90;;;;;;;11.76;68.21;100603.13;5031157;28;20025;-80
2023/09/24 05:26:14;;;;;;;7.07;1.93;;;;;;;11.73;67.96;100597.88;5048864;28;20114;-80
2023/09/24 05:28:40;;;;;;;7.68;2.30;;;;;;;11.72;68.00;100611.94;5048991;28;20414;-80
2023/09/24 05:31:06;;;;;;;7.15;1.73;;;;;;;11.69;68.46;100606.66;5048871;28;20088;-79
2023/09/24 05:33:31;;;;;;;10.70;2.30;;;;;;;11.67;68.22;100613.69;5048935;28;20061;-80
2023/09/24 05:35:57;;;;;;;6.70;1.80;;;;;;;11.68;68.33;100610.16;5049156;28;20416;-80
2023/09/24 05:38:23;;;;;;;4.93;1.85;;;;;;;11.69;68.33;100617.19;5048968;28;20108;-80
2023/09/24 05:40:48;;;;;;;6.70;1.83;;;;;;;11.70;68.41;100612.81;5048869;28;20480;-80
2023/09/24 05:43:15;;;;;;;7.60;2.08;;;;;;;11.65;68.36;100614.59;5056919;28;20487;-80
2023/09/24 05:45:48;;;;;;;8.47;2.13;;;;;;;11.63;69.08;100614.59;5068843;28;20028;-80
2023/09/24 05:48:15;;;;;;;6.85;2.10;;;;;;;11.62;68.34;100620.75;5059191;28;20025;-80
2023/09/24 05:50:41;;;;;;;6.38;1.92;;;;;;;11.58;68.75;100614.63;5048907;28;20516;-80
2023/09/24 05:53:08;;;;;;;6.38;2.00;;;;;;;11.59;68.86;100608.47;5048988;28;20040;-80
2023/09/24 05:55:34;;;;;;;8.88;2.53;;;;;;;11.60;68.59;100612.84;5048668;28;20033;-80
2023/09/24 05:57:59;;;;;;;6.13;1.90;;;;;;;11.64;68.54;100616.34;5051643;28;20163;-80
2023/09/24 06:00:28;;;;;;;5.43;2.10;;;;;;;11.67;68.38;100615.47;5056953;28;20029;-80
2023/09/24 06:02:53;;;;;;;7.60;1.90;;;;;;;11.69;68.59;100616.34;5052409;28;20290;-80
2023/09/24 06:05:19;;;;;;;9.27;2.13;;;;;;;11.70;68.26;100626.91;5052604;28;20465;-80
2023/09/24 06:07:44;;;;;;;6.60;2.00;;;;;;;11.71;68.21;100622.50;5054976;28;20504;-80
2023/09/24 06:10:10;;;;;;;11.43;1.63;;;;;;;11.87;67.87;100613.66;5092429;28;20046;-80
2023/09/24 06:12:35;;;;;;;8.00;2.03;;;;;;;12.20;66.83;100610.91;5092545;28;20113;-80
2023/09/24 06:15:03;;;;;;;8.17;1.87;;;;;;;12.52;66.12;100607.19;5084716;28;20025;-80
2023/09/24 06:17:29;;;;;;;7.53;2.08;;;;;;;12.80;65.25;100609.63;5052150;28;20414;-80
2023/09/24 06:19:55;;;;;;;5.60;1.93;;;;;;;13.06;64.39;100606.78;5052151;28;20037;-80
2023/09/24 06:22:22;;;;;;;8.45;1.77;;;;;;;13.27;63.97;100601.28;5052552;28;20442;-80
2023/09/24 06:24:50;;;;;;;6.60;1.70;;;;;;;13.37;63.77;100608.22;5052325;28;20044;-80
2023/09/24 06:27:16;;;;;;;6.53;1.93;;;;;;;13.39;63.69;100603.81;5051653;28;20561;-79
2023/09/24 06:29:42;;;;;;;7.60;2.00;;;;;;;13.31;63.75;100601.25;5051771;28;20102;-80
2023/09/24 06:32:07;;;;;;;7.25;1.80;;;;;;;13.19;64.23;100602.25;5051644;28;20120;-80
2023/09/24 06:34:35;;;;;;;5.50;1.73;;;;;;;13.05;64.87;100598.84;5052302;28;20296;-80
2023/09/24 06:37:00;;;;;;;6.57;1.95;;;;;;;12.97;65.25;100604.19;5051828;28;20456;-80
2023/09/24 06:39:26;;;;;;;7.87;2.23;;;;;;;13.02;65.07;100604.16;5051683;28;20033;-80
2023/09/24 06:41:51;;;;;;;7.60;1.70;;;;;;;13.20;64.72;100595.19;5051894;28;20091;-80
2023/09/24 06:44:22;;;;;;;7.78;1.75;;;;;;;13.39;64.51;100592.34;5068504;28;20021;-80
2023/09/24 06:46:48;;;;;;;7.43;2.00;;;;;;;13.56;64.02;100592.19;5071352;28;20024;-80
2023/09/24 06:49:14;;;;;;;7.53;2.10;;;;;;;13.68;63.75;100584.13;5053819;28;20025;-80
2023/09/24 06:51:39;;;;;;;5.70;2.00;;;;;;;13.81;63.55;100584.84;5052116;28;20426;-80
2023/09/24 06:54:05;;;;;;;5.50;1.90;;;;;;;13.99;63.33;100589.03;5051791;28;20059;-80
2023/09/24 06:56:30;;;;;;;9.07;2.10;;;;;;;13.98;63.68;100592.59;5054935;28;20112;-80
2023/09/24 06:58:55;;;;;;;7.90;2.00;;;;;;;13.98;63.74;100597.00;5051410;28;20033;-79
2023/09/24 07:01:22;;;;;;;7.20;2.30;;;;;;;14.00;63.90;100604.03;5070825;28;20071;-80
2023/09/24 07:03:48;;;;;;;7.28;2.20;;;;;;;13.98;64.34;100602.28;5071155;28;20040;-80
2023/09/24 07:06:16;;;;;;;8.37;2.30;;;;;;;13.98;64.68;100600.53;5071205;28;20170;-80
2023/09/24 07:08:41;;;;;;;6.88;1.85;;;;;;;14.03;64.61;100613.72;5088527;28;20031;-80
2023/09/24 07:11:25;;;;;;;7.10;2.40;;;;;;;14.18;65.16;100607.34;5086048;28;20025;-80
2023/09/24 07:13:51;;;;;;;6.93;2.15;;;;;;;14.32;64.42;100608.00;5051095;28;20370;-80
2023/09/24 07:16:20;;;;;;;6.93;2.30;;;;;;;14.40;64.26;100601.75;5050952;28;20072;-80
2023/09/24 07:18:46;;;;;;;6.53;2.30;;;;;;;14.40;64.25;100597.31;5050009;28;20024;-81
2023/09/24 07:21:12;;;;;;;7.47;2.35;;;;;;;14.49;64.05;100598.94;5052598;28;20431;-81
2023/09/24 07:23:37;;;;;;;6.63;2.23;;;;;;;14.56;64.00;100594.44;5059504;28;20054;-81
2023/09/24 07:26:05;;;;;;;8.73;2.43;;;;;;;14.68;63.82;100593.38;5050600;28;20477;-80
2023/09/24 07:28:31;;;;;;;6.55;2.53;;;;;;;14.76;63.60;100594.13;5050883;28;20025;-81
2023/09/24 07:30:56;;;;;;;5.80;2.20;;;;;;;14.78;64.14;100590.59;5050355;28;20562;-81
2023/09/24 07:33:22;;;;;;;8.77;2.53;;;;;;;14.89;63.39;100593.06;5049902;28;20024;-80
2023/09/24 07:35:47;;;;;;;7.90;2.50;;;;;;;15.04;63.52;100588.38;5050678;28;20021;-81
2023/09/24 07:38:12;;;;;;;9.47;2.17;;;;;;;15.20;63.05;100592.50;5050807;28;20459;-80
2023/09/24 07:40:39;;;;;;;8.53;2.20;;;;;;;15.37;62.89;100588.69;5050507;28;20025;-80
2023/09/24 07:43:06;;;;;;;8.25;2.35;;;;;;;15.55;62.65;100590.09;5032619;28;20078;-80
2023/09/24 07:45:32;;;;;;;6.38;2.22;;;;;;;15.73;62.60;100586.19;5048699;28;20025;-80
2023/09/24 07:47:57;;;;;;;9.27;2.50;;;;;;;15.87;62.16;100590.38;5055740;28;20025;-81
2023/09/24 07:50:23;;;;;;;9.57;2.17;;;;;;;15.97;62.07;100594.59;5068876;28;20154;-81
2023/09/24 07:52:48;;;;;;;8.27;2.50;;;;;;;16.10;62.04;100589.03;5062501;28;20170;-80
2023/09/24 07:55:13;;;;;;;6.37;2.10;;;;;;;16.24;61.78;100588.72;5048676;28;20033;-81
2023/09/24 07:57:42;;;;;;;7.38;2.30;;;;;;;16.32;61.60;100581.44;5048461;28;20099;-81
2023/09/24 08:00:08;;;;;;;10.63;2.53;;;;;;;16.48;61.54;100573.97;5040904;28;20028;-81
2023/09/24 08:02:34;;;;;;;8.10;2.53;;;;;;;16.69;61.03;100585.91;5070330;28;20031;-81
2023/09/24 08:05:00;;;;;;;6.10;2.10;;;;;;;16.85;60.78;100589.06;5070001;28;20032;-80
2023/09/24 08:07:29;;;;;;;9.40;2.10;;;;;;;16.91;60.88;100572.94;5071513;28;20028;-82
2023/09/24 08:09:54;;;;;;;6.82;2.50;;;;;;;17.09;60.58;100581.38;5050031;28;20539;-81
2023/09/24 08:12:20;;;;;;;7.43;2.30;;;;;;;17.29;60.18;100577.34;5050026;28;20107;-81
2023/09/24 08:14:47;;;;;;;7.03;2.10;;;;;;;17.43;59.84;100579.63;5050218;28;20045;-81
2023/09/24 08:17:13;;;;;;;6.83;2.40;;;;;;;17.58;59.55;100572.97;5049887;28;20037;-82
2023/09/24 08:19:38;;;;;;;12.13;2.58;;;;;;;17.68;59.29;100569.13;5049647;28;20423;-81
2023/09/24 08:22:04;;;;;;;7.80;2.70;;;;;;;17.72;58.72;100570.78;5050019;28;20104;-80
2023/09/24 08:24:30;;;;;;;8.43;2.27;;;;;;;17.76;58.87;100569.78;5049740;28;20505;-82
2023/09/24 08:26:56;;;;;;;7.65;2.10;;;;;;;17.91;58.71;100565.81;5055846;28;20463;-82
2023/09/24 08:29:21;;;;;;;7.10;2.20;;;;;;;18.09;58.64;100563.53;5069923;28;20052;-82
2023/09/24 08:31:46;;;;;;;8.03;2.13;;;;;;;18.33;58.11;100569.03;5061162;28;20087;-82
2023/09/24 08:34:12;;;;;;;6.97;2.00;;;;;;;18.48;57.98;100565.00;5057426;28;20031;-81
2023/09/24 08:36:38;;;;;;;7.57;2.30;;;;;;;18.62;57.81;100562.75;5049833;28;20025;-81
2023/09/24 08:39:04;;;;;;;5.80;2.00;;;;;;;18.75;57.17;100563.19;5040608;28;20051;-82
2023/09/24 08:41:30;;;;;;;6.88;1.98;;;;;;;18.88;57.01;100568.13;5054459;28;20025;-81
2023/09/24 08:43:56;;;;;;;6.47;2.37;;;;;;;19.02;56.81;100560.53;5053077;28;20062;-79
2023/09/24 08:46:25;;;;;;;7.03;2.20;;;;;;;19.17;55.90;100561.84;5049637;28;20017;-79
2023/09/24 08:48:54;;;;;;;9.20;2.20;;;;;;;19.36;56.07;100558.47;5059495;28;20033;-79
2023/09/24 08:51:20;;;;;;;6.53;2.15;;;;;;;19.56;54.58;100559.56;5049702;28;20059;-79
2023/09/24 08:53:45;;;;;;;5.13;1.92;;;;;;;19.65;54.88;100560.09;5049447;28;20040;-79
2023/09/24 08:56:11;;;;;;;6.87;1.90;;;;;;;19.79;55.17;100559.56;5049681;28;20036;-82
2023/09/24 08:58:36;;;;;;;10.10;1.90;;;;;;;19.98;54.25;100550.00;5054523;28;20522;-82
2023/09/24 09:01:02;;;;;;;7.47;2.30;;;;;;;20.15;53.28;100552.03;5057662;28;20025;-81
2023/09/24 09:03:28;;;;;;;8.00;2.00;;;;;;;20.25;52.53;100550.72;5058799;28;20423;-80
2023/09/24 09:05:53;;;;;;;7.13;1.90;;;;;;;20.37;52.36;100547.53;5060506;28;20027;-80
2023/09/24 09:08:19;;;;;;;6.93;2.07;;;;;;;20.53;52.19;100544.25;5057045;28;20033;-88
2023/09/24 09:10:48;;;;;;;8.23;2.13;;;;;;;20.79;50.48;100536.94;5069490;28;20059;-86
2023/09/24 09:13:17;;;;;;;6.40;1.80;;;;;;;20.93;50.73;100531.91;5053328;28;20033;-76
2023/09/24 09:15:43;;;;;;;5.93;1.90;;;;;;;20.98;50.40;100531.72;5049304;28;20033;-85
2023/09/24 09:18:29;;;;;;;6.70;1.70;;;;;;;21.07;50.40;100531.31;5049122;28;20055;-76
2023/09/24 09:20:59;;;;;;;6.72;1.90;;;;;;;21.31;49.93;100527.59;5050979;28;20036;-81
2023/09/24 09:23:30;;;;;;;6.18;1.70;;;;;;;21.39;49.37;100521.88;5050647;28;20037;-90
2023/09/24 09:25:55;;;;;;;5.03;1.60;;;;;;;21.54;47.72;100523.00;5049434;28;20106;-80
2023/09/24 09:28:38;;;;;;;5.07;1.73;;;;;;;21.61;46.65;100524.47;5069434;28;20481;-77
2023/09/24 09:31:09;;;;;;;6.20;2.00;;;;;;;21.77;46.38;100513.94;5069070;28;20040;-78
2023/09/24 09:33:42;;;;;;;8.75;2.08;;;;;;;21.80;46.54;100503.91;5072925;28;20033;-76
2023/09/24 09:36:28;;;;;;;6.35;2.03;;;;;;;21.85;45.91;100508.22;5072740;28;20025;-77
2023/09/24 09:38:59;;;;;;;6.43;1.90;;;;;;;22.02;45.47;100502.03;5072891;28;20032;-79
2023/09/24 09:41:25;;;;;;;5.80;1.75;;;;;;;22.15;45.29;100499.63;5054779;28;20032;-81
2023/09/24 09:43:52;;;;;;;8.03;1.77;;;;;;;22.32;44.92;100505.03;5060017;28;20036;-76
2023/09/24 09:46:23;;;;;;;6.00;1.63;;;;;;;22.40;44.20;100499.28;5056210;28;20039;-77
2023/09/24 09:49:04;;;;;;;6.35;1.60;;;;;;;22.54;43.99;100497.75;5052658;28;20048;-77
2023/09/24 09:51:38;;;;;;;7.10;1.75;;;;;;;22.67;43.53;100492.63;5052761;28;20600;-79
2023/09/24 09:54:06;;;;;;;8.73;1.75;;;;;;;22.82;43.49;100481.13;5052750;28;20033;-79
2023/09/24 09:56:35;;;;;;;7.50;1.70;;;;;;;22.94;43.01;100480.44;5052660;28;20021;-82
2023/09/24 09:59:01;;;;;;;7.82;1.55;;;;;;;22.90;42.83;100476.19;5053084;28;20127;-80
2023/09/24 10:01:26;;;;;;;7.07;1.60;;;;;;;23.02;42.55;100472.00;5072494;28;20112;-78
2023/09/24 10:03:53;;;;;;;7.17;1.73;;;;;;;23.14;42.84;100472.28;5072739;28;20020;-83
2023/09/24 10:06:19;;;;;;;4.95;1.40;;;;;;;23.35;42.67;100462.25;5073355;28;20070;-78
2023/09/24 10:08:49;;;;;;;6.13;1.98;;;;;;;23.50;42.35;100453.31;5091348;28;20378;-80
2023/09/24 10:11:38;;;;;;;5.53;1.70;;;;;;;23.51;41.78;100459.56;5072721;28;20386;-84
2023/09/24 10:14:05;;;;;;;6.45;2.17;;;;;;;23.73;41.78;100444.94;5050679;28;20493;-80
2023/09/24 10:16:40;;;;;;;7.32;2.38;;;;;;;23.75;41.08;100438.53;5059722;28;20415;-80
2023/09/24 10:19:09;;;;;;;10.75;5.20;;;;;;;23.87;41.25;100441.44;5062097;28;20044;-80
2023/09/24 10:21:40;;;;;;;10.43;2.90;;;;;;;23.94;41.43;100432.94;5052443;28;20032;-83
2023/09/24 10:24:12;;;;;;;7.43;1.90;;;;;;;23.99;41.05;100429.97;5052810;28;20021;-80
2023/09/24 10:27:03;;;;;;;6.07;1.55;;;;;;;24.00;40.94;100425.47;5052442;28;20553;-82
2023/09/24 10:29:51;;;;;;;6.28;1.70;;;;;;;24.16;40.72;100422.78;5052135;28;20110;-79
2023/09/24 10:32:17;;;;;;;6.72;1.65;;;;;;;24.32;40.82;100415.56;5051889;28;20080;-86
2023/09/24 10:37:20;;;;;;;6.70;1.67;;;;;;;24.46;39.89;100411.16;5052004;28;20079;-79
2023/09/24 10:40:19;;;;;;;7.50;1.80;;;;;;;24.49;39.22;100409.16;5051539;28;20513;-79
2023/09/24 10:42:45;;;;;;;6.32;1.83;;;;;;;24.60;39.67;100399.56;5058157;28;20037;-81
2023/09/24 10:45:12;;;;;;;6.80;1.80;;;;;;;24.68;39.33;100404.47;5056056;28;20028;-81
2023/09/24 10:47:38;;;;;;;10.27;2.50;;;;;;;24.82;38.87;100396.44;5051501;28;20028;-79
2023/09/24 10:50:18;;;;;;;8.40;2.17;;;;;;;24.80;37.81;100393.81;5051864;28;20037;-78
2023/09/24 10:53:00;;;;;;;7.35;2.25;;;;;;;24.58;35.93;100399.66;5051606;28;20596;-84
2023/09/24 10:55:29;;;;;;;5.65;2.05;;;;;;;24.68;36.15;100388.31;5039102;28;20441;-82
2023/09/24 10:57:56;;;;;;;6.30;2.00;;;;;;;24.73;37.76;100388.91;5071590;28;20476;-80
2023/09/24 11:00:25;;;;;;;13.13;6.60;;;;;;;24.80;37.58;100388.44;5060118;28;20029;-82
2023/09/24 11:02:57;;;;;;;7.77;3.43;;;;;;;25.01;36.92;100384.53;5051549;28;20052;-84
2023/09/24 11:05:23;;;;;;;8.32;2.70;;;;;;;25.23;37.25;100384.91;5051435;28;20588;-80
2023/09/24 11:07:48;;;;;;;5.40;1.83;;;;;;;25.31;36.29;100378.13;5073035;28;20103;-80
2023/09/24 11:10:24;;;;;;;6.30;2.77;;;;;;;25.29;33.96;100364.75;5091465;28;20024;-79
2023/09/24 11:12:50;;;;;;;5.90;1.90;;;;;;;25.55;34.93;100372.16;5091630;28;20138;-84
2023/09/24 11:15:17;;;;;;;7.23;2.93;;;;;;;25.62;35.45;100371.66;5094794;28;20055;-84
2023/09/24 11:17:47;;;;;;;10.77;4.67;;;;;;;25.62;34.91;100357.28;5073951;28;20799;-83
2023/09/24 11:20:13;;;;;;;7.68;2.63;;;;;;;25.80;35.30;100356.06;5091231;28;20066;-85
2023/09/24 11:22:39;;;;;;;8.48;2.08;;;;;;;25.85;34.45;100344.09;5080263;28;20039;-85
2023/09/24 11:25:06;;;;;;;5.45;2.00;;;;;;;25.93;33.53;100344.47;5056671;28;20393;-85
2023/09/24 11:27:54;;;;;;;5.53;2.15;;;;;;;25.93;34.11;100333.69;5050607;28;20021;-84